sensor_id;sensor_type;location;lat;lon;timestamp;P1;durP1;ratioP1;P2;durP2;ratioP2
31083;SDS011;36333;51.382;0.016;2022-12-15T00:00:02;36.08;;;9.00;;
31083;SDS011;36333;51.382;0.016;2022-12-15T00:02:49;29.80;;;9.43;;
31083;SDS011;36333;51.382;0.016;2022-12-15T00:05:36;29.00;;;10.07;;
31083;SDS011;36333;51.382;0.016;2022-12-15T00:08:22;24.58;;;9.05;;
31083;SDS011;36333;51.382;0.016;2022-12-15T00:11:08;36.65;;;8.88;;
31083;SDS011;36333;51.382;0.016;2022-12-15T00:13:54;34.63;;;10.05;;
31083;SDS011;36333;51.382;0.016;2022-12-15T00:16:40;35.75;;;9.82;;
31083;SDS011;36333;51.382;0.016;2022-12-15T00:19:26;27.83;;;8.88;;
31083;SDS011;36333;51.382;0.016;2022-12-15T00:22:12;28.52;;;8.32;;
31083;SDS011;36333;51.382;0.016;2022-12-15T00:24:58;26.52;;;9.77;;
31083;SDS011;36333;51.382;0.016;2022-12-15T00:27:44;33.13;;;9.63;;
31083;SDS011;36333;51.382;0.016;2022-12-15T00:30:30;29.17;;;9.23;;
31083;SDS011;36333;51.382;0.016;2022-12-15T00:33:16;33.70;;;9.15;;
31083;SDS011;36333;51.382;0.016;2022-12-15T00:36:02;29.30;;;9.45;;
31083;SDS011;36333;51.382;0.016;2022-12-15T00:38:48;32.28;;;9.15;;
31083;SDS011;36333;51.382;0.016;2022-12-15T00:41:17;30.65;;;9.82;;
31083;SDS011;36333;51.382;0.016;2022-12-15T00:43:44;25.63;;;9.48;;
31083;SDS011;36333;51.382;0.016;2022-12-15T00:46:12;37.78;;;8.98;;
31083;SDS011;36333;51.382;0.016;2022-12-15T00:48:59;26.38;;;8.40;;
31083;SDS011;36333;51.382;0.016;2022-12-15T00:51:27;31.20;;;9.15;;
31083;SDS011;36333;51.382;0.016;2022-12-15T00:54:13;28.30;;;8.32;;
31083;SDS011;36333;51.382;0.016;2022-12-15T00:56:59;23.45;;;8.75;;
31083;SDS011;36333;51.382;0.016;2022-12-15T00:59:45;19.55;;;7.80;;
31083;SDS011;36333;51.382;0.016;2022-12-15T01:02:31;24.52;;;7.82;;
31083;SDS011;36333;51.382;0.016;2022-12-15T01:05:18;22.75;;;8.57;;
31083;SDS011;36333;51.382;0.016;2022-12-15T01:08:04;34.03;;;10.05;;
31083;SDS011;36333;51.382;0.016;2022-12-15T01:10:50;30.92;;;9.95;;
31083;SDS011;36333;51.382;0.016;2022-12-15T01:13:36;28.67;;;9.77;;
31083;SDS011;36333;51.382;0.016;2022-12-15T01:16:22;28.60;;;10.07;;
31083;SDS011;36333;51.382;0.016;2022-12-15T01:19:09;32.17;;;10.02;;
31083;SDS011;36333;51.382;0.016;2022-12-15T01:24:23;35.08;;;10.50;;
31083;SDS011;36333;51.382;0.016;2022-12-15T01:26:51;30.50;;;10.40;;
31083;SDS011;36333;51.382;0.016;2022-12-15T01:29:18;29.33;;;10.20;;
31083;SDS011;36333;51.382;0.016;2022-12-15T01:31:46;37.70;;;11.40;;
31083;SDS011;36333;51.382;0.016;2022-12-15T01:34:17;31.55;;;9.23;;
31083;SDS011;36333;51.382;0.016;2022-12-15T01:36:46;32.65;;;9.27;;
31083;SDS011;36333;51.382;0.016;2022-12-15T01:39:14;32.65;;;9.77;;
31083;SDS011;36333;51.382;0.016;2022-12-15T01:41:42;33.63;;;9.90;;
31083;SDS011;36333;51.382;0.016;2022-12-15T01:46:45;26.38;;;9.15;;
31083;SDS011;36333;51.382;0.016;2022-12-15T01:49:16;35.03;;;9.27;;
31083;SDS011;36333;51.382;0.016;2022-12-15T01:51:48;32.38;;;9.35;;
31083;SDS011;36333;51.382;0.016;2022-12-15T01:54:31;29.88;;;9.13;;
31083;SDS011;36333;51.382;0.016;2022-12-15T01:57:08;31.65;;;9.60;;
31083;SDS011;36333;51.382;0.016;2022-12-15T01:59:41;28.98;;;8.48;;
31083;SDS011;36333;51.382;0.016;2022-12-15T02:02:16;33.42;;;9.02;;
31083;SDS011;36333;51.382;0.016;2022-12-15T02:04:47;34.20;;;8.95;;
31083;SDS011;36333;51.382;0.016;2022-12-15T02:07:17;30.65;;;9.15;;
31083;SDS011;36333;51.382;0.016;2022-12-15T02:09:46;25.00;;;8.93;;
31083;SDS011;36333;51.382;0.016;2022-12-15T02:20:58;27.55;;;8.55;;
31083;SDS011;36333;51.382;0.016;2022-12-15T02:31:58;29.10;;;10.07;;
31083;SDS011;36333;51.382;0.016;2022-12-15T02:37:17;27.58;;;8.93;;
31083;SDS011;36333;51.382;0.016;2022-12-15T02:40:08;33.22;;;9.45;;
31083;SDS011;36333;51.382;0.016;2022-12-15T02:42:38;28.95;;;8.73;;
31083;SDS011;36333;51.382;0.016;2022-12-15T02:45:11;29.42;;;9.23;;
31083;SDS011;36333;51.382;0.016;2022-12-15T02:47:46;28.23;;;8.98;;
31083;SDS011;36333;51.382;0.016;2022-12-15T02:50:51;29.67;;;9.13;;
31083;SDS011;36333;51.382;0.016;2022-12-15T02:56:18;28.52;;;8.35;;
31083;SDS011;36333;51.382;0.016;2022-12-15T03:01:59;25.15;;;8.55;;
31083;SDS011;36333;51.382;0.016;2022-12-15T03:04:29;25.10;;;8.27;;
31083;SDS011;36333;51.382;0.016;2022-12-15T03:07:01;29.75;;;8.38;;
31083;SDS011;36333;51.382;0.016;2022-12-15T03:09:31;23.52;;;8.00;;
31083;SDS011;36333;51.382;0.016;2022-12-15T03:11:59;28.55;;;8.60;;
31083;SDS011;36333;51.382;0.016;2022-12-15T03:14:26;22.60;;;8.48;;
31083;SDS011;36333;51.382;0.016;2022-12-15T03:16:57;25.17;;;8.52;;
31083;SDS011;36333;51.382;0.016;2022-12-15T03:19:24;25.48;;;9.13;;
31083;SDS011;36333;51.382;0.016;2022-12-15T03:21:52;25.05;;;9.15;;
31083;SDS011;36333;51.382;0.016;2022-12-15T03:24:20;31.05;;;9.70;;
31083;SDS011;36333;51.382;0.016;2022-12-15T03:26:47;27.25;;;9.00;;
31083;SDS011;36333;51.382;0.016;2022-12-15T03:29:16;22.95;;;8.50;;
31083;SDS011;36333;51.382;0.016;2022-12-15T03:31:44;26.80;;;9.15;;
31083;SDS011;36333;51.382;0.016;2022-12-15T03:34:15;26.90;;;8.65;;
31083;SDS011;36333;51.382;0.016;2022-12-15T03:36:43;26.17;;;8.10;;
31083;SDS011;36333;51.382;0.016;2022-12-15T03:39:10;22.80;;;8.25;;
31083;SDS011;36333;51.382;0.016;2022-12-15T03:41:38;23.42;;;8.50;;
31083;SDS011;36333;51.382;0.016;2022-12-15T03:44:07;25.92;;;8.68;;
31083;SDS011;36333;51.382;0.016;2022-12-15T03:46:35;24.60;;;8.35;;
31083;SDS011;36333;51.382;0.016;2022-12-15T03:49:02;27.13;;;9.02;;
31083;SDS011;36333;51.382;0.016;2022-12-15T03:51:30;30.58;;;8.38;;
31083;SDS011;36333;51.382;0.016;2022-12-15T03:53:58;28.55;;;8.27;;
31083;SDS011;36333;51.382;0.016;2022-12-15T03:56:25;25.10;;;8.55;;
31083;SDS011;36333;51.382;0.016;2022-12-15T03:58:53;29.13;;;9.15;;
31083;SDS011;36333;51.382;0.016;2022-12-15T04:01:27;19.33;;;8.45;;
31083;SDS011;36333;51.382;0.016;2022-12-15T04:03:57;26.10;;;7.78;;
31083;SDS011;36333;51.382;0.016;2022-12-15T04:06:28;23.73;;;8.02;;
31083;SDS011;36333;51.382;0.016;2022-12-15T04:08:56;23.65;;;8.45;;
31083;SDS011;36333;51.382;0.016;2022-12-15T04:11:24;29.98;;;8.15;;
31083;SDS011;36333;51.382;0.016;2022-12-15T04:13:51;25.15;;;8.02;;
31083;SDS011;36333;51.382;0.016;2022-12-15T04:16:19;25.98;;;7.97;;
31083;SDS011;36333;51.382;0.016;2022-12-15T04:18:47;24.10;;;8.40;;
31083;SDS011;36333;51.382;0.016;2022-12-15T04:21:37;25.55;;;9.18;;
31083;SDS011;36333;51.382;0.016;2022-12-15T04:24:05;22.50;;;7.65;;
31083;SDS011;36333;51.382;0.016;2022-12-15T04:26:51;24.08;;;9.25;;
31083;SDS011;36333;51.382;0.016;2022-12-15T04:29:39;29.20;;;8.80;;
31083;SDS011;36333;51.382;0.016;2022-12-15T04:32:25;22.30;;;8.23;;
31083;SDS011;36333;51.382;0.016;2022-12-15T04:35:16;24.42;;;7.80;;
31083;SDS011;36333;51.382;0.016;2022-12-15T04:38:02;25.88;;;7.93;;
31083;SDS011;36333;51.382;0.016;2022-12-15T04:40:48;20.30;;;7.72;;
31083;SDS011;36333;51.382;0.016;2022-12-15T04:43:34;24.80;;;8.07;;
31083;SDS011;36333;51.382;0.016;2022-12-15T04:46:20;26.88;;;8.10;;
31083;SDS011;36333;51.382;0.016;2022-12-15T04:49:06;28.67;;;8.52;;
31083;SDS011;36333;51.382;0.016;2022-12-15T04:51:53;26.00;;;8.68;;
31083;SDS011;36333;51.382;0.016;2022-12-15T04:54:39;24.58;;;8.15;;
31083;SDS011;36333;51.382;0.016;2022-12-15T04:57:25;27.30;;;7.28;;
31083;SDS011;36333;51.382;0.016;2022-12-15T05:00:11;23.35;;;8.07;;
31083;SDS011;36333;51.382;0.016;2022-12-15T05:03:02;24.97;;;8.57;;
31083;SDS011;36333;51.382;0.016;2022-12-15T05:05:49;24.60;;;8.10;;
31083;SDS011;36333;51.382;0.016;2022-12-15T05:08:35;24.65;;;8.48;;
31083;SDS011;36333;51.382;0.016;2022-12-15T05:11:21;24.98;;;8.40;;
31083;SDS011;36333;51.382;0.016;2022-12-15T05:14:07;25.25;;;8.25;;
31083;SDS011;36333;51.382;0.016;2022-12-15T05:16:53;27.73;;;8.02;;
31083;SDS011;36333;51.382;0.016;2022-12-15T05:19:39;20.45;;;8.48;;
31083;SDS011;36333;51.382;0.016;2022-12-15T05:22:26;36.08;;;8.48;;
31083;SDS011;36333;51.382;0.016;2022-12-15T05:25:12;24.85;;;7.82;;
31083;SDS011;36333;51.382;0.016;2022-12-15T05:27:58;19.42;;;8.00;;
31083;SDS011;36333;51.382;0.016;2022-12-15T05:30:44;22.40;;;8.10;;
31083;SDS011;36333;51.382;0.016;2022-12-15T05:33:30;25.48;;;7.88;;
31083;SDS011;36333;51.382;0.016;2022-12-15T05:35:58;24.83;;;8.35;;
31083;SDS011;36333;51.382;0.016;2022-12-15T05:38:25;24.40;;;8.18;;
31083;SDS011;36333;51.382;0.016;2022-12-15T05:40:55;26.73;;;8.13;;
31083;SDS011;36333;51.382;0.016;2022-12-15T05:43:24;26.95;;;8.52;;
31083;SDS011;36333;51.382;0.016;2022-12-15T05:45:52;27.17;;;8.00;;
31083;SDS011;36333;51.382;0.016;2022-12-15T05:48:20;25.90;;;8.25;;
31083;SDS011;36333;51.382;0.016;2022-12-15T05:53:16;28.88;;;7.93;;
31083;SDS011;36333;51.382;0.016;2022-12-15T05:55:43;21.25;;;8.18;;
31083;SDS011;36333;51.382;0.016;2022-12-15T05:58:11;21.15;;;8.32;;
31083;SDS011;36333;51.382;0.016;2022-12-15T06:00:39;29.27;;;8.05;;
31083;SDS011;36333;51.382;0.016;2022-12-15T06:03:07;22.10;;;7.93;;
31083;SDS011;36333;51.382;0.016;2022-12-15T06:05:34;26.95;;;9.13;;
31083;SDS011;36333;51.382;0.016;2022-12-15T06:08:02;22.73;;;8.07;;
31083;SDS011;36333;51.382;0.016;2022-12-15T06:10:30;25.95;;;8.77;;
31083;SDS011;36333;51.382;0.016;2022-12-15T06:12:58;26.67;;;8.38;;
31083;SDS011;36333;51.382;0.016;2022-12-15T06:15:25;23.42;;;9.18;;
31083;SDS011;36333;51.382;0.016;2022-12-15T06:17:56;19.10;;;8.07;;
31083;SDS011;36333;51.382;0.016;2022-12-15T06:20:24;28.27;;;8.95;;
31083;SDS011;36333;51.382;0.016;2022-12-15T06:22:52;24.17;;;8.25;;
31083;SDS011;36333;51.382;0.016;2022-12-15T06:25:20;22.15;;;8.13;;
31083;SDS011;36333;51.382;0.016;2022-12-15T06:27:47;20.90;;;7.75;;
31083;SDS011;36333;51.382;0.016;2022-12-15T06:30:15;17.83;;;7.57;;
31083;SDS011;36333;51.382;0.016;2022-12-15T06:32:43;25.48;;;8.13;;
31083;SDS011;36333;51.382;0.016;2022-12-15T06:35:10;27.63;;;8.32;;
31083;SDS011;36333;51.382;0.016;2022-12-15T06:37:43;19.48;;;8.15;;
31083;SDS011;36333;51.382;0.016;2022-12-15T06:41:49;30.17;;;8.38;;
31083;SDS011;36333;51.382;0.016;2022-12-15T06:45:25;21.77;;;8.35;;
31083;SDS011;36333;51.382;0.016;2022-12-15T06:48:35;30.15;;;8.85;;
31083;SDS011;36333;51.382;0.016;2022-12-15T06:51:21;29.67;;;9.40;;
31083;SDS011;36333;51.382;0.016;2022-12-15T06:54:22;24.42;;;9.05;;
31083;SDS011;36333;51.382;0.016;2022-12-15T06:57:22;32.38;;;8.55;;
31083;SDS011;36333;51.382;0.016;2022-12-15T07:00:30;23.98;;;8.57;;
31083;SDS011;36333;51.382;0.016;2022-12-15T07:03:24;27.02;;;8.95;;
31083;SDS011;36333;51.382;0.016;2022-12-15T07:06:06;23.20;;;8.50;;
31083;SDS011;36333;51.382;0.016;2022-12-15T07:08:49;22.75;;;9.30;;
31083;SDS011;36333;51.382;0.016;2022-12-15T07:11:46;26.00;;;8.77;;
31083;SDS011;36333;51.382;0.016;2022-12-15T07:14:22;26.73;;;9.10;;
31083;SDS011;36333;51.382;0.016;2022-12-15T07:16:54;21.30;;;8.88;;
31083;SDS011;36333;51.382;0.016;2022-12-15T07:20:01;29.15;;;9.13;;
31083;SDS011;36333;51.382;0.016;2022-12-15T07:23:27;28.67;;;9.52;;
31083;SDS011;36333;51.382;0.016;2022-12-15T07:26:38;24.13;;;8.00;;
31083;SDS011;36333;51.382;0.016;2022-12-15T07:29:26;32.08;;;8.75;;
31083;SDS011;36333;51.382;0.016;2022-12-15T07:32:50;25.65;;;9.00;;
31083;SDS011;36333;51.382;0.016;2022-12-15T07:35:40;27.30;;;8.57;;
31083;SDS011;36333;51.382;0.016;2022-12-15T07:39:06;28.55;;;7.90;;
31083;SDS011;36333;51.382;0.016;2022-12-15T07:42:00;26.85;;;9.57;;
31083;SDS011;36333;51.382;0.016;2022-12-15T07:46:04;31.63;;;9.45;;
31083;SDS011;36333;51.382;0.016;2022-12-15T07:57:34;23.73;;;8.90;;
31083;SDS011;36333;51.382;0.016;2022-12-15T08:13:55;24.20;;;9.02;;
31083;SDS011;36333;51.382;0.016;2022-12-15T08:18:00;28.92;;;9.85;;
31083;SDS011;36333;51.382;0.016;2022-12-15T08:27:01;27.40;;;10.02;;
31083;SDS011;36333;51.382;0.016;2022-12-15T08:29:36;36.25;;;15.77;;
31083;SDS011;36333;51.382;0.016;2022-12-15T08:32:20;29.23;;;10.70;;
31083;SDS011;36333;51.382;0.016;2022-12-15T08:34:54;32.90;;;12.05;;
31083;SDS011;36333;51.382;0.016;2022-12-15T08:40:33;30.38;;;10.23;;
31083;SDS011;36333;51.382;0.016;2022-12-15T08:43:50;35.40;;;11.98;;
31083;SDS011;36333;51.382;0.016;2022-12-15T08:46:50;32.92;;;12.75;;
31083;SDS011;36333;51.382;0.016;2022-12-15T08:49:17;32.50;;;12.48;;
31083;SDS011;36333;51.382;0.016;2022-12-15T08:51:49;35.40;;;14.90;;
31083;SDS011;36333;51.382;0.016;2022-12-15T08:54:20;46.47;;;14.05;;
31083;SDS011;36333;51.382;0.016;2022-12-15T08:56:48;30.60;;;11.88;;
31083;SDS011;36333;51.382;0.016;2022-12-15T08:59:22;31.83;;;14.00;;
31083;SDS011;36333;51.382;0.016;2022-12-15T09:01:50;34.17;;;12.85;;
31083;SDS011;36333;51.382;0.016;2022-12-15T09:04:21;45.10;;;16.35;;
31083;SDS011;36333;51.382;0.016;2022-12-15T09:07:09;37.50;;;12.80;;
31083;SDS011;36333;51.382;0.016;2022-12-15T09:12:43;45.75;;;17.67;;
31083;SDS011;36333;51.382;0.016;2022-12-15T09:15:11;37.30;;;13.45;;
31083;SDS011;36333;51.382;0.016;2022-12-15T09:17:40;42.75;;;16.98;;
31083;SDS011;36333;51.382;0.016;2022-12-15T09:20:08;35.08;;;14.57;;
31083;SDS011;36333;51.382;0.016;2022-12-15T09:22:46;40.22;;;13.98;;
31083;SDS011;36333;51.382;0.016;2022-12-15T09:25:16;39.58;;;14.13;;
31083;SDS011;36333;51.382;0.016;2022-12-15T09:27:49;36.33;;;13.98;;
31083;SDS011;36333;51.382;0.016;2022-12-15T09:30:18;39.03;;;13.32;;
31083;SDS011;36333;51.382;0.016;2022-12-15T09:32:48;34.67;;;13.57;;
31083;SDS011;36333;51.382;0.016;2022-12-15T09:35:19;36.65;;;13.65;;
31083;SDS011;36333;51.382;0.016;2022-12-15T09:38:01;35.80;;;13.15;;
31083;SDS011;36333;51.382;0.016;2022-12-15T09:40:38;34.55;;;13.35;;
31083;SDS011;36333;51.382;0.016;2022-12-15T09:43:09;40.20;;;15.05;;
31083;SDS011;36333;51.382;0.016;2022-12-15T09:46:07;38.45;;;14.35;;
31083;SDS011;36333;51.382;0.016;2022-12-15T09:48:47;38.47;;;14.77;;
31083;SDS011;36333;51.382;0.016;2022-12-15T09:51:17;41.45;;;14.25;;
31083;SDS011;36333;51.382;0.016;2022-12-15T09:53:45;41.78;;;14.60;;
31083;SDS011;36333;51.382;0.016;2022-12-15T09:56:25;37.65;;;14.18;;
31083;SDS011;36333;51.382;0.016;2022-12-15T10:02:22;36.85;;;14.25;;
31083;SDS011;36333;51.382;0.016;2022-12-15T10:08:17;35.30;;;14.68;;
31083;SDS011;36333;51.382;0.016;2022-12-15T10:13:39;39.22;;;14.57;;
31083;SDS011;36333;51.382;0.016;2022-12-15T10:16:33;47.50;;;15.60;;
31083;SDS011;36333;51.382;0.016;2022-12-15T10:21:37;114.03;;;36.00;;
31083;SDS011;36333;51.382;0.016;2022-12-15T10:27:12;40.38;;;17.20;;
31083;SDS011;36333;51.382;0.016;2022-12-15T10:30:04;38.25;;;15.63;;
31083;SDS011;36333;51.382;0.016;2022-12-15T10:35:24;43.85;;;17.33;;
31083;SDS011;36333;51.382;0.016;2022-12-15T10:38:20;40.95;;;15.77;;
31083;SDS011;36333;51.382;0.016;2022-12-15T10:41:03;51.40;;;17.00;;
31083;SDS011;36333;51.382;0.016;2022-12-15T10:43:46;43.85;;;17.75;;
31083;SDS011;36333;51.382;0.016;2022-12-15T10:46:23;43.38;;;16.85;;
31083;SDS011;36333;51.382;0.016;2022-12-15T10:48:57;44.35;;;17.13;;
31083;SDS011;36333;51.382;0.016;2022-12-15T10:51:52;41.85;;;16.15;;
31083;SDS011;36333;51.382;0.016;2022-12-15T10:54:34;42.78;;;16.92;;
31083;SDS011;36333;51.382;0.016;2022-12-15T11:02:40;37.35;;;15.82;;
31083;SDS011;36333;51.382;0.016;2022-12-15T11:12:35;34.42;;;13.55;;
31083;SDS011;36333;51.382;0.016;2022-12-15T11:16:54;30.77;;;13.50;;
31083;SDS011;36333;51.382;0.016;2022-12-15T11:20:55;38.30;;;15.30;;
31083;SDS011;36333;51.382;0.016;2022-12-15T11:37:32;47.38;;;18.13;;
31083;SDS011;36333;51.382;0.016;2022-12-15T12:05:06;41.80;;;20.13;;
31083;SDS011;36333;51.382;0.016;2022-12-15T12:07:51;40.78;;;19.88;;
31083;SDS011;36333;51.382;0.016;2022-12-15T12:13:03;39.95;;;18.40;;
31083;SDS011;36333;51.382;0.016;2022-12-15T12:18:47;29.55;;;13.00;;
31083;SDS011;36333;51.382;0.016;2022-12-15T12:21:25;37.35;;;14.20;;
31083;SDS011;36333;51.382;0.016;2022-12-15T12:24:03;30.33;;;13.57;;
31083;SDS011;36333;51.382;0.016;2022-12-15T12:26:55;32.83;;;13.23;;
31083;SDS011;36333;51.382;0.016;2022-12-15T12:29:34;28.20;;;14.10;;
31083;SDS011;36333;51.382;0.016;2022-12-15T12:38:06;38.08;;;14.50;;
31083;SDS011;36333;51.382;0.016;2022-12-15T12:43:25;36.70;;;16.38;;
31083;SDS011;36333;51.382;0.016;2022-12-15T12:46:21;38.65;;;16.73;;
31083;SDS011;36333;51.382;0.016;2022-12-15T12:51:50;32.42;;;15.00;;
31083;SDS011;36333;51.382;0.016;2022-12-15T12:54:38;33.17;;;13.98;;
31083;SDS011;36333;51.382;0.016;2022-12-15T12:59:38;26.48;;;13.95;;
31083;SDS011;36333;51.382;0.016;2022-12-15T13:07:32;29.50;;;13.10;;
31083;SDS011;36333;51.382;0.016;2022-12-15T13:12:55;26.15;;;12.05;;
31083;SDS011;36333;51.382;0.016;2022-12-15T13:15:36;29.58;;;12.50;;
31083;SDS011;36333;51.382;0.016;2022-12-15T13:18:19;24.27;;;11.70;;
31083;SDS011;36333;51.382;0.016;2022-12-15T13:20:49;31.13;;;11.75;;
31083;SDS011;36333;51.382;0.016;2022-12-15T13:41:42;21.00;;;9.60;;
31083;SDS011;36333;51.382;0.016;2022-12-15T13:44:43;22.90;;;8.90;;
31083;SDS011;36333;51.382;0.016;2022-12-15T13:49:48;19.83;;;8.50;;
31083;SDS011;36333;51.382;0.016;2022-12-15T13:52:33;15.48;;;6.93;;
31083;SDS011;36333;51.382;0.016;2022-12-15T13:55:36;19.08;;;6.80;;
31083;SDS011;36333;51.382;0.016;2022-12-15T13:58:10;18.13;;;6.65;;
31083;SDS011;36333;51.382;0.016;2022-12-15T14:00:49;15.90;;;6.75;;
31083;SDS011;36333;51.382;0.016;2022-12-15T14:03:23;20.92;;;6.53;;
31083;SDS011;36333;51.382;0.016;2022-12-15T14:05:54;25.17;;;6.70;;
31083;SDS011;36333;51.382;0.016;2022-12-15T14:08:33;18.23;;;6.68;;
31083;SDS011;36333;51.382;0.016;2022-12-15T14:11:01;15.65;;;6.82;;
31083;SDS011;36333;51.382;0.016;2022-12-15T14:13:51;22.90;;;8.95;;
31083;SDS011;36333;51.382;0.016;2022-12-15T14:16:28;26.93;;;8.43;;
31083;SDS011;36333;51.382;0.016;2022-12-15T14:19:03;24.25;;;9.25;;
31083;SDS011;36333;51.382;0.016;2022-12-15T14:24:20;22.20;;;8.73;;
31083;SDS011;36333;51.382;0.016;2022-12-15T14:27:07;27.65;;;8.40;;
31083;SDS011;36333;51.382;0.016;2022-12-15T14:29:34;24.45;;;10.02;;
31083;SDS011;36333;51.382;0.016;2022-12-15T14:32:02;22.58;;;9.07;;
31083;SDS011;36333;51.382;0.016;2022-12-15T14:34:31;33.45;;;9.05;;
31083;SDS011;36333;51.382;0.016;2022-12-15T14:37:02;28.83;;;10.10;;
31083;SDS011;36333;51.382;0.016;2022-12-15T14:42:20;24.17;;;9.35;;
31083;SDS011;36333;51.382;0.016;2022-12-15T14:44:51;21.33;;;8.95;;
31083;SDS011;36333;51.382;0.016;2022-12-15T14:47:25;24.02;;;8.57;;
31083;SDS011;36333;51.382;0.016;2022-12-15T14:49:55;21.95;;;8.75;;
31083;SDS011;36333;51.382;0.016;2022-12-15T14:52:32;20.33;;;7.47;;
31083;SDS011;36333;51.382;0.016;2022-12-15T14:57:52;24.05;;;7.63;;
31083;SDS011;36333;51.382;0.016;2022-12-15T15:03:09;26.00;;;9.77;;
31083;SDS011;36333;51.382;0.016;2022-12-15T15:05:45;30.95;;;10.13;;
31083;SDS011;36333;51.382;0.016;2022-12-15T15:08:25;26.60;;;9.40;;
31083;SDS011;36333;51.382;0.016;2022-12-15T15:11:49;24.20;;;9.40;;
31083;SDS011;36333;51.382;0.016;2022-12-15T15:14:09;22.23;;;8.13;;
31083;SDS011;36333;51.382;0.016;2022-12-15T15:24:01;17.70;;;7.32;;
31083;SDS011;36333;51.382;0.016;2022-12-15T15:27:37;23.33;;;8.30;;
31083;SDS011;36333;51.382;0.016;2022-12-15T15:30:13;20.40;;;7.88;;
31083;SDS011;36333;51.382;0.016;2022-12-15T15:32:55;21.33;;;7.65;;
31083;SDS011;36333;51.382;0.016;2022-12-15T15:35:31;19.65;;;7.63;;
31083;SDS011;36333;51.382;0.016;2022-12-15T15:44:04;19.30;;;7.13;;
31083;SDS011;36333;51.382;0.016;2022-12-15T15:46:47;18.77;;;6.93;;
31083;SDS011;36333;51.382;0.016;2022-12-15T15:49:21;26.70;;;8.65;;
31083;SDS011;36333;51.382;0.016;2022-12-15T15:51:53;19.08;;;8.20;;
31083;SDS011;36333;51.382;0.016;2022-12-15T15:54:28;20.45;;;8.73;;
31083;SDS011;36333;51.382;0.016;2022-12-15T15:57:01;22.35;;;9.45;;
31083;SDS011;36333;51.382;0.016;2022-12-15T15:59:29;19.88;;;9.45;;
31083;SDS011;36333;51.382;0.016;2022-12-15T16:01:57;28.27;;;9.20;;
31083;SDS011;36333;51.382;0.016;2022-12-15T16:04:30;22.73;;;8.85;;
31083;SDS011;36333;51.382;0.016;2022-12-15T16:07:30;21.38;;;8.65;;
31083;SDS011;36333;51.382;0.016;2022-12-15T16:10:43;25.77;;;8.60;;
31083;SDS011;36333;51.382;0.016;2022-12-15T16:13:14;22.27;;;8.48;;
31083;SDS011;36333;51.382;0.016;2022-12-15T16:16:01;24.20;;;8.77;;
31083;SDS011;36333;51.382;0.016;2022-12-15T16:18:34;26.85;;;9.02;;
31083;SDS011;36333;51.382;0.016;2022-12-15T16:21:04;23.63;;;9.48;;
31083;SDS011;36333;51.382;0.016;2022-12-15T16:26:22;29.50;;;9.02;;
31083;SDS011;36333;51.382;0.016;2022-12-15T16:28:58;23.57;;;9.20;;
31083;SDS011;36333;51.382;0.016;2022-12-15T16:34:14;21.10;;;9.20;;
31083;SDS011;36333;51.382;0.016;2022-12-15T16:37:02;21.58;;;9.10;;
31083;SDS011;36333;51.382;0.016;2022-12-15T16:39:31;27.63;;;9.88;;
31083;SDS011;36333;51.382;0.016;2022-12-15T16:42:23;25.33;;;9.85;;
31083;SDS011;36333;51.382;0.016;2022-12-15T16:44:53;30.05;;;10.20;;
31083;SDS011;36333;51.382;0.016;2022-12-15T16:47:24;30.55;;;10.02;;
31083;SDS011;36333;51.382;0.016;2022-12-15T16:50:02;30.35;;;10.90;;
31083;SDS011;36333;51.382;0.016;2022-12-15T16:52:30;27.60;;;10.43;;
31083;SDS011;36333;51.382;0.016;2022-12-15T16:55:01;23.20;;;10.57;;
31083;SDS011;36333;51.382;0.016;2022-12-15T16:57:28;30.65;;;11.10;;
31083;SDS011;36333;51.382;0.016;2022-12-15T16:59:58;28.73;;;11.80;;
31083;SDS011;36333;51.382;0.016;2022-12-15T17:02:30;24.15;;;10.88;;
31083;SDS011;36333;51.382;0.016;2022-12-15T17:05:00;33.05;;;11.90;;
31083;SDS011;36333;51.382;0.016;2022-12-15T17:07:35;29.92;;;11.23;;
31083;SDS011;36333;51.382;0.016;2022-12-15T17:10:14;29.73;;;11.88;;
31083;SDS011;36333;51.382;0.016;2022-12-15T17:15:33;38.22;;;12.75;;
31083;SDS011;36333;51.382;0.016;2022-12-15T17:18:08;30.38;;;12.90;;
31083;SDS011;36333;51.382;0.016;2022-12-15T17:20:39;25.90;;;13.23;;
31083;SDS011;36333;51.382;0.016;2022-12-15T17:23:11;27.92;;;11.45;;
31083;SDS011;36333;51.382;0.016;2022-12-15T17:25:49;25.88;;;11.45;;
31083;SDS011;36333;51.382;0.016;2022-12-15T17:29:19;34.45;;;11.98;;
31083;SDS011;36333;51.382;0.016;2022-12-15T17:31:59;28.65;;;10.95;;
31083;SDS011;36333;51.382;0.016;2022-12-15T17:34:36;42.08;;;15.68;;
31083;SDS011;36333;51.382;0.016;2022-12-15T17:37:09;55.65;;;20.88;;
31083;SDS011;36333;51.382;0.016;2022-12-15T17:39:41;45.53;;;17.85;;
31083;SDS011;36333;51.382;0.016;2022-12-15T17:44:49;47.75;;;18.60;;
31083;SDS011;36333;51.382;0.016;2022-12-15T17:47:17;53.08;;;23.73;;
31083;SDS011;36333;51.382;0.016;2022-12-15T17:49:45;75.00;;;28.42;;
31083;SDS011;36333;51.382;0.016;2022-12-15T17:54:57;58.25;;;25.90;;
31083;SDS011;36333;51.382;0.016;2022-12-15T17:57:26;66.40;;;27.58;;
31083;SDS011;36333;51.382;0.016;2022-12-15T18:00:09;66.63;;;27.67;;
31083;SDS011;36333;51.382;0.016;2022-12-15T18:02:48;59.60;;;27.05;;
31083;SDS011;36333;51.382;0.016;2022-12-15T18:05:20;58.15;;;25.15;;
31083;SDS011;36333;51.382;0.016;2022-12-15T18:08:09;61.80;;;26.58;;
31083;SDS011;36333;51.382;0.016;2022-12-15T18:10:41;55.33;;;25.80;;
31083;SDS011;36333;51.382;0.016;2022-12-15T18:20:05;49.03;;;21.05;;
31083;SDS011;36333;51.382;0.016;2022-12-15T18:22:54;46.15;;;19.90;;
31083;SDS011;36333;51.382;0.016;2022-12-15T18:25:41;57.78;;;22.02;;
31083;SDS011;36333;51.382;0.016;2022-12-15T18:28:17;56.20;;;25.55;;
31083;SDS011;36333;51.382;0.016;2022-12-15T18:30:50;66.03;;;28.35;;
31083;SDS011;36333;51.382;0.016;2022-12-15T18:33:30;66.30;;;28.88;;
31083;SDS011;36333;51.382;0.016;2022-12-15T18:35:58;66.07;;;26.90;;
31083;SDS011;36333;51.382;0.016;2022-12-15T18:38:29;72.22;;;33.65;;
31083;SDS011;36333;51.382;0.016;2022-12-15T18:41:00;63.38;;;27.08;;
31083;SDS011;36333;51.382;0.016;2022-12-15T18:43:31;63.08;;;27.30;;
31083;SDS011;36333;51.382;0.016;2022-12-15T18:46:04;58.42;;;25.25;;
31083;SDS011;36333;51.382;0.016;2022-12-15T18:48:40;63.45;;;26.92;;
31083;SDS011;36333;51.382;0.016;2022-12-15T18:54:17;56.30;;;23.88;;
31083;SDS011;36333;51.382;0.016;2022-12-15T18:57:07;72.18;;;26.20;;
31083;SDS011;36333;51.382;0.016;2022-12-15T19:02:41;65.40;;;26.52;;
31083;SDS011;36333;51.382;0.016;2022-12-15T19:08:18;60.05;;;23.17;;
31083;SDS011;36333;51.382;0.016;2022-12-15T19:11:17;58.95;;;23.05;;
31083;SDS011;36333;51.382;0.016;2022-12-15T19:13:59;56.53;;;21.85;;
31083;SDS011;36333;51.382;0.016;2022-12-15T19:16:28;56.38;;;22.05;;
31083;SDS011;36333;51.382;0.016;2022-12-15T19:19:19;50.17;;;20.33;;
31083;SDS011;36333;51.382;0.016;2022-12-15T19:22:09;48.72;;;19.02;;
31083;SDS011;36333;51.382;0.016;2022-12-15T19:24:56;56.13;;;20.33;;
31083;SDS011;36333;51.382;0.016;2022-12-15T19:27:25;57.40;;;21.20;;
31083;SDS011;36333;51.382;0.016;2022-12-15T19:29:54;58.25;;;20.80;;
31083;SDS011;36333;51.382;0.016;2022-12-15T19:32:22;44.05;;;18.85;;
31083;SDS011;36333;51.382;0.016;2022-12-15T19:37:24;40.35;;;16.02;;
31083;SDS011;36333;51.382;0.016;2022-12-15T19:39:54;38.72;;;16.00;;
31083;SDS011;36333;51.382;0.016;2022-12-15T19:42:30;44.00;;;17.63;;